Time;durP1;ratioP1;P1;durP2;ratioP2;P2;SDS_P1;SDS_P2;PMS_P1;PMS_P2;Temp;Humidity;BMP_temperature;BMP_pressure;BME280_temperature;BME280_humidity;BME280_pressure;Samples;Min_cycle;Max_cycle;Signal;HPM_P1;HPM_P2
2021/09/14 00:00:48;;;;;;;16.27;14.33;;;;;;;12.83;100.00;99292.23;1780325;80;21092;-57
2021/09/14 00:03:14;;;;;;;27.17;16.12;;;;;;;12.78;100.00;99294.95;1780514;80;20938;-57
2021/09/14 00:05:41;;;;;;;29.77;16.27;;;;;;;12.71;100.00;99297.92;1780442;80;20935;-57
2021/09/14 00:08:07;;;;;;;21.15;15.20;;;;;;;12.66;100.00;99297.94;1780258;80;20942;-57
2021/09/14 00:10:36;;;;;;;30.02;17.92;;;;;;;12.61;100.00;99291.23;1780650;80;26898;-57
2021/09/14 00:13:02;;;;;;;26.25;17.52;;;;;;;12.56;100.00;99293.94;1776982;80;21730;-57
2021/09/14 00:15:29;;;;;;;21.50;16.23;;;;;;;12.52;100.00;99294.20;1766966;81;20903;-58
2021/09/14 00:17:58;;;;;;;30.57;18.92;;;;;;;12.47;100.00;99296.91;1767012;81;20958;-57
2021/09/14 00:20:27;;;;;;;27.25;19.70;;;;;;;12.41;100.00;99304.19;1745859;81;21465;-58
2021/09/14 00:22:53;;;;;;;37.83;20.90;;;;;;;12.39;100.00;99301.77;1767006;80;21305;-58
2021/09/14 00:25:20;;;;;;;30.37;19.50;;;;;;;12.40;100.00;99298.02;1766816;81;21112;-58
2021/09/14 00:27:47;;;;;;;55.33;21.37;;;;;;;12.38;100.00;99298.02;1767051;81;21377;-57
2021/09/14 00:30:16;;;;;;;28.00;19.50;;;;;;;12.33;100.00;99283.22;1766897;80;20949;-58
2021/09/14 00:32:43;;;;;;;23.18;19.50;;;;;;;12.32;100.00;99292.36;1767051;81;20828;-58
2021/09/14 00:35:10;;;;;;;30.68;20.32;;;;;;;12.33;100.00;99292.64;1766899;81;20862;-58
2021/09/14 00:37:38;;;;;;;27.77;20.60;;;;;;;12.28;100.00;99289.96;1745534;81;21825;-57
2021/09/14 00:40:07;;;;;;;26.10;20.15;;;;;;;12.21;100.00;99291.58;1766716;81;20974;-58
2021/09/14 00:42:34;;;;;;;22.10;17.50;;;;;;;12.17;100.00;99295.33;1768112;81;20915;-57
2021/09/14 00:45:06;;;;;;;24.75;17.27;;;;;;;12.13;100.00;99296.97;1771738;81;20907;-57
2021/09/14 00:47:33;;;;;;;27.45;19.57;;;;;;;12.12;100.00;99294.53;1771970;81;20887;-57
2021/09/14 00:50:00;;;;;;;29.92;19.37;;;;;;;12.14;100.00;99291.84;1750323;81;21194;-57
2021/09/14 00:52:28;;;;;;;23.15;18.30;;;;;;;12.11;100.00;99295.62;1771656;81;20903;-57
2021/09/14 00:54:55;;;;;;;25.68;19.80;;;;;;;12.08;100.00;99292.94;1772066;81;20931;-58
2021/09/14 00:57:22;;;;;;;31.82;20.70;;;;;;;12.12;100.00;99294.53;1771808;81;20973;-58
2021/09/14 00:59:49;;;;;;;25.75;20.32;;;;;;;12.07;100.00;99297.23;1771875;81;20977;-57
2021/09/14 01:02:16;;;;;;;24.72;19.35;;;;;;;12.07;100.00;99295.34;1772090;81;21630;-57
2021/09/14 01:04:42;;;;;;;27.05;19.73;;;;;;;12.13;100.00;99301.00;1771641;81;20824;-58
2021/09/14 01:07:09;;;;;;;25.82;19.10;;;;;;;12.18;100.00;99296.95;1771807;81;20974;-57
2021/09/14 01:09:36;;;;;;;23.92;18.45;;;;;;;12.18;100.00;99302.34;1771703;81;20907;-58
2021/09/14 01:12:06;;;;;;;23.97;17.83;;;;;;;12.15;100.00;99303.41;1772131;81;20851;-58
2021/09/14 01:14:32;;;;;;;23.90;19.45;;;;;;;12.14;100.00;99304.49;1799394;79;21324;-57
2021/09/14 01:17:00;;;;;;;23.92;19.35;;;;;;;12.10;100.00;99298.86;1803668;79;21444;-58
2021/09/14 01:19:28;;;;;;;28.60;19.32;;;;;;;12.12;100.00;99306.64;1814948;79;26839;-58
2021/09/14 01:21:55;;;;;;;25.35;19.27;;;;;;;12.11;100.00;99303.16;1814750;79;20925;-58
2021/09/14 01:24:22;;;;;;;27.42;19.70;;;;;;;12.09;100.00;99307.98;1814756;79;20879;-58
2021/09/14 01:26:52;;;;;;;25.72;18.95;;;;;;;12.11;100.00;99311.22;1813981;79;20846;-58
2021/09/14 01:32:07;;;;;;;27.98;19.48;;;;;;;11.96;100.00;99305.30;1814261;79;21376;-58
2021/09/14 01:34:34;;;;;;;26.45;19.73;;;;;;;11.90;100.00;99304.22;1814946;78;20984;-58
2021/09/14 01:37:01;;;;;;;30.15;21.15;;;;;;;11.85;100.00;99300.95;1815371;79;20853;-58
2021/09/14 01:39:31;;;;;;;42.80;22.13;;;;;;;11.80;100.00;99299.06;1783906;79;21858;-58
2021/09/14 01:41:58;;;;;;;30.60;19.55;;;;;;;11.80;100.00;99299.06;1814634;78;20861;-58
2021/09/14 01:44:24;;;;;;;26.17;18.57;;;;;;;11.82;100.00;99306.08;1805147;79;20924;-58
2021/09/14 01:46:53;;;;;;;37.23;21.12;;;;;;;11.84;100.00;99302.59;1804177;79;21273;-58
2021/09/14 01:49:21;;;;;;;;;;;;;;;11.87;100.00;99307.45;1806738;79;20897;-58
2021/09/14 01:51:48;;;;;;;27.55;20.25;;;;;;;11.88;100.00;99307.70;1804177;79;21137;-58
2021/09/14 01:54:16;;;;;;;35.38;22.52;;;;;;;11.85;100.00;99310.91;1804061;79;20974;-58
2021/09/14 01:56:42;;;;;;;25.55;19.82;;;;;;;11.80;100.00;99311.70;1804004;79;21380;-58
2021/09/14 01:59:11;;;;;;;27.73;20.77;;;;;;;11.75;100.00;99314.39;1804014;79;21431;-58
2021/09/14 02:01:42;;;;;;;31.52;22.32;;;;;;;11.71;100.00;99312.79;1804204;79;20937;-58
2021/09/14 02:04:15;;;;;;;30.77;22.10;;;;;;;11.68;100.00;99309.81;1803964;79;21119;-58
2021/09/14 02:07:12;;;;;;;29.23;20.72;;;;;;;11.66;100.00;99318.16;1802994;79;20869;-58
2021/09/14 02:42:36;;;;;;;26.62;18.73;;;;;;;11.69;100.00;99331.06;1772172;81;20941;-58
2021/09/14 02:56:21;;;;;;;27.87;20.43;;;;;;;11.52;100.00;99338.55;1747140;81;20917;-58
2021/09/14 02:58:44;;;;;;;27.65;21.12;;;;;;;11.52;100.00;99327.80;1726539;82;21907;-58
2021/09/14 03:01:13;;;;;;;31.85;21.73;;;;;;;11.56;100.00;99328.87;1747260;81;20858;-58
2021/09/14 03:03:43;;;;;;;24.37;19.40;;;;;;;11.58;100.00;99329.42;1726944;82;20881;-59
2021/09/14 03:06:11;;;;;;;27.67;21.30;;;;;;;11.57;100.00;99339.37;1747377;82;20901;-58
2021/09/14 03:08:40;;;;;;;26.20;20.68;;;;;;;11.56;100.00;99343.66;1747501;81;20917;-58
2021/09/14 03:11:09;;;;;;;34.40;22.07;;;;;;;11.54;100.00;99339.11;1747560;82;21081;-58
2021/09/14 03:13:40;;;;;;;25.20;19.57;;;;;;;11.55;100.00;99336.13;1762829;80;20890;-58
2021/09/14 03:16:09;;;;;;;30.05;22.10;;;;;;;11.57;100.00;99339.37;1777565;80;20900;-58
2021/09/14 03:18:36;;;;;;;27.07;20.25;;;;;;;11.55;100.00;99340.70;1756940;80;21447;-58
2021/09/14 03:21:05;;;;;;;28.50;20.97;;;;;;;11.52;100.00;99343.94;1777737;80;20901;-59
2021/09/14 03:23:34;;;;;;;29.75;20.95;;;;;;;11.51;100.00;99349.02;1778043;80;20918;-59
2021/09/14 03:26:02;;;;;;;28.10;20.27;;;;;;;11.51;100.00;99349.85;1777756;80;20913;-59
2021/09/14 03:28:30;;;;;;;25.97;18.52;;;;;;;11.48;100.00;99342.84;1778246;80;25096;-59
2021/09/14 03:30:56;;;;;;;25.37;18.30;;;;;;;11.44;100.00;99349.80;1777494;80;20874;-59
2021/09/14 03:33:23;;;;;;;27.05;19.73;;;;;;;11.41;100.00;99353.83;1777884;80;20818;-59
2021/09/14 03:35:50;;;;;;;24.65;19.80;;;;;;;11.42;100.00;99351.97;1778173;80;21072;-59
2021/09/14 03:38:17;;;;;;;24.95;18.27;;;;;;;11.40;100.00;99365.66;1754380;79;20960;-58
2021/09/14 03:40:45;;;;;;;27.48;20.32;;;;;;;11.36;100.00;99367.25;1752034;80;20937;-58
2021/09/14 03:43:15;;;;;;;23.67;19.17;;;;;;;11.31;100.00;99367.23;1750338;80;21079;-58
2021/09/14 03:45:46;;;;;;;28.47;20.62;;;;;;;11.28;100.00;99366.42;1771707;81;20964;-58
2021/09/14 03:48:15;;;;;;;27.75;20.15;;;;;;;11.27;100.00;99375.02;1772083;81;21710;-58
2021/09/14 03:50:42;;;;;;;28.03;20.50;;;;;;;11.26;100.00;99373.93;1772273;81;20973;-58
2021/09/14 03:53:09;;;;;;;28.57;20.30;;;;;;;11.26;100.00;99377.42;1772063;81;22104;-58
2021/09/14 03:55:36;;;;;;;28.02;19.75;;;;;;;11.25;100.00;99374.47;1785034;79;20984;-59
2021/09/14 03:58:04;;;;;;;28.55;19.92;;;;;;;11.24;100.00;99380.90;1760041;81;21364;-58
2021/09/14 04:00:31;;;;;;;30.43;20.40;;;;;;;11.20;100.00;99379.83;1772175;79;21371;-58
2021/09/14 04:03:04;;;;;;;25.82;20.35;;;;;;;11.19;100.00;99376.84;1800177;79;21391;-58
2021/09/14 04:10:43;;;;;;;27.40;20.80;;;;;;;11.25;100.00;99380.39;1794860;79;20901;-57
2021/09/14 04:13:12;;;;;;;25.02;20.50;;;;;;;11.28;100.00;99387.91;1794110;79;21055;-58
2021/09/14 04:15:39;;;;;;;27.80;21.55;;;;;;;11.28;100.00;99379.86;1772880;79;21372;-57
2021/09/14 04:18:10;;;;;;;23.00;18.90;;;;;;;11.31;100.00;99384.70;1773900;79;20869;-58
2021/09/14 04:20:37;;;;;;;25.68;18.23;;;;;;;11.36;100.00;99381.48;1791055;79;21060;-57
2021/09/14 04:23:04;;;;;;;35.00;19.73;;;;;;;11.45;100.00;99382.34;1755498;81;21335;-57
2021/09/14 04:25:31;;;;;;;28.73;20.10;;;;;;;11.58;100.00;99383.18;1786454;79;21122;-58
2021/09/14 04:28:00;;;;;;;26.45;20.65;;;;;;;11.69;100.00;99389.41;1765258;81;20906;-58
2021/09/14 04:30:27;;;;;;;24.95;18.62;;;;;;;11.79;100.00;99390.23;1803707;79;20957;-58
2021/09/14 04:32:54;;;;;;;24.32;17.92;;;;;;;11.91;100.00;99392.71;1758543;81;20980;-58
2021/09/14 04:35:21;;;;;;;23.45;18.67;;;;;;;12.01;100.00;99391.92;1786507;79;20922;-58
2021/09/14 04:37:48;;;;;;;25.37;18.52;;;;;;;12.13;100.00;99401.09;1792831;79;21213;-58
2021/09/14 04:40:16;;;;;;;22.75;17.42;;;;;;;12.28;100.00;99396.26;1788102;79;21428;-58
2021/09/14 04:42:44;;;;;;;22.13;17.40;;;;;;;12.46;100.00;99401.63;1791614;79;20917;-58
2021/09/14 04:45:14;;;;;;;22.13;16.25;;;;;;;12.65;100.00;99404.84;1771640;79;20910;-58
2021/09/14 04:47:41;;;;;;;21.02;16.32;;;;;;;12.85;100.00;99409.39;1786298;79;20981;-59
2021/09/14 04:50:09;;;;;;;23.95;16.73;;;;;;;13.06;100.00;99414.22;1748546;81;21713;-58
2021/09/14 04:52:36;;;;;;;29.67;17.30;;;;;;;13.14;100.00;99407.45;1734399;82;21010;-59
2021/09/14 04:55:06;;;;;;;20.20;16.23;;;;;;;13.19;100.00;99418.77;1735136;82;20870;-59
2021/09/14 04:57:33;;;;;;;20.10;15.45;;;;;;;13.29;100.00;99425.49;1735172;82;20922;-59
2021/09/14 05:00:00;;;;;;;21.93;16.37;;;;;;;13.43;100.00;99426.53;1760607;81;21345;-59
2021/09/14 05:02:26;;;;;;;24.98;15.48;;;;;;;13.60;100.00;99420.80;1705207;82;21823;-59
2021/09/14 05:04:53;;;;;;;22.48;15.53;;;;;;;13.81;100.00;99428.23;1717892;82;20970;-59
2021/09/14 05:07:21;;;;;;;19.32;14.65;;;;;;;14.00;100.00;99428.40;1717724;83;21397;-58
2021/09/14 05:09:48;;;;;;;22.48;16.17;;;;;;;14.19;100.00;99428.56;1717998;83;20957;-58
2021/09/14 05:12:15;;;;;;;19.02;16.97;;;;;;;14.35;100.00;99434.09;1722156;82;20926;-60
2021/09/14 05:14:43;;;;;;;;;;;;;;;14.48;100.00;99433.22;1739085;81;20883;-59
2021/09/14 05:17:16;;;;;;;29.27;15.65;;;;;;;14.63;100.00;99437.72;1734007;82;20412;-58
2021/09/14 05:19:48;;;;;;;25.72;16.70;;;;;;;14.70;100.00;99437.64;1733926;82;20887;-59
2021/09/14 05:22:18;;;;;;;;;;;;;;;14.71;100.00;99437.89;1737454;82;20880;-59
2021/09/14 05:24:45;;;;;;;19.80;14.23;;;;;;;14.86;100.00;99438.85;1735010;82;20135;-59
2021/09/14 05:27:12;;;;;;;24.92;19.30;;;;;;;15.08;100.00;99441.87;1734856;82;21428;-58
2021/09/14 05:29:38;;;;;;;27.45;15.83;;;;;;;15.23;100.00;99443.05;1734702;82;20935;-58
2021/09/14 05:32:07;;;;;;;28.85;17.32;;;;;;;15.33;100.00;99440.78;1734691;82;20939;-58
2021/09/14 05:34:35;;;;;;;24.02;19.20;;;;;;;15.44;100.00;99453.66;1737911;81;20993;-59
2021/09/14 05:37:02;;;;;;;31.73;21.55;;;;;;;15.62;100.00;99445.32;1736613;81;21008;-60
2021/09/14 05:39:30;;;;;;;19.75;15.40;;;;;;;15.89;100.00;99448.79;1734252;81;21768;-59
2021/09/14 05:41:57;;;;;;;23.15;16.27;;;;;;;16.11;100.00;99452.27;1763646;81;20858;-58
2021/09/14 05:44:24;;;;;;;16.57;13.75;;;;;;;16.37;100.00;99451.36;1771633;80;20952;-58
2021/09/14 05:46:51;;;;;;;20.50;15.20;;;;;;;16.55;100.00;99449.71;1735280;81;20965;-58
2021/09/14 05:49:19;;;;;;;17.05;13.60;;;;;;;16.84;100.00;99446.82;1731274;81;20908;-58
2021/09/14 05:51:46;;;;;;;18.70;12.73;;;;;;;17.10;100.00;99455.31;1746189;82;21077;-58
2021/09/14 05:54:13;;;;;;;16.15;12.35;;;;;;;17.40;100.00;99453.69;1754477;80;20823;-58
2021/09/14 05:56:40;;;;;;;19.25;12.58;;;;;;;17.68;100.00;99459.89;1746075;82;20882;-58
2021/09/14 05:59:08;;;;;;;15.13;11.30;;;;;;;17.79;100.00;99461.30;1754184;80;21462;-58
2021/09/14 06:01:35;;;;;;;21.68;11.78;;;;;;;17.87;100.00;99464.67;1746249;80;20996;-58
2021/09/14 06:04:02;;;;;;;16.43;10.83;;;;;;;17.85;100.00;99459.30;1754736;80;21122;-58
2021/09/14 06:06:29;;;;;;;18.32;14.87;;;;;;;18.10;100.00;99459.29;1755431;80;20954;-58
2021/09/14 06:08:57;;;;;;;16.62;12.93;;;;;;;18.32;100.00;99465.31;1748784;79;20894;-58
2021/09/14 06:11:25;;;;;;;17.00;10.70;;;;;;;18.40;100.00;99464.03;1750336;80;21013;-58
2021/09/14 06:13:54;;;;;;;17.65;11.55;;;;;;;18.53;100.00;99466.45;1754942;80;20858;-58
2021/09/14 06:16:20;;;;;;;25.75;12.82;;;;;;;18.93;100.00;99467.92;1745331;81;21084;-60
2021/09/14 06:18:49;;;;;;;13.28;9.83;;;;;;;19.17;100.00;99474.38;1754591;80;20974;-59
2021/09/14 06:21:17;;;;;;;22.30;11.57;;;;;;;19.48;100.00;99471.64;1750309;80;20958;-59
2021/09/14 06:23:46;;;;;;;14.95;9.78;;;;;;;19.78;100.00;99470.55;1760268;80;20985;-58
2021/09/14 06:26:13;;;;;;;15.23;10.33;;;;;;;19.64;100.00;99472.56;1762039;80;20871;-59
2021/09/14 06:28:40;;;;;;;20.93;13.23;;;;;;;19.51;100.00;99466.69;1750560;80;21146;-59
2021/09/14 06:31:08;;;;;;;11.53;9.23;;;;;;;19.92;100.00;99467.70;1750217;80;21035;-59
2021/09/14 06:33:35;;;;;;;15.43;9.95;;;;;;;20.20;100.00;99467.41;1750168;80;21468;-59
2021/09/14 06:36:01;;;;;;;14.43;10.40;;;;;;;20.31;100.00;99472.23;1725517;80;21016;-59
2021/09/14 06:38:31;;;;;;;12.50;8.35;;;;;;;20.55;100.00;99469.58;1752446;80;20851;-59
2021/09/14 06:40:59;;;;;;;12.53;8.90;;;;;;;20.43;100.00;99473.48;1745959;82;21125;-59
2021/09/14 06:43:34;;;;;;;11.70;8.10;;;;;;;20.36;100.00;99478.08;1754407;80;21448;-59
2021/09/14 06:46:08;;;;;;;15.53;11.40;;;;;;;20.24;100.00;99479.28;1744045;81;20959;-58
2021/09/14 06:48:37;;;;;;;12.47;8.40;;;;;;;20.28;100.00;99475.57;1740661;80;21443;-59
2021/09/14 06:51:04;;;;;;;12.05;7.97;;;;;;;20.30;100.00;99482.08;1771917;81;20874;-58
2021/09/14 06:53:31;;;;;;;9.05;7.83;;;;;;;20.63;100.00;99472.88;1776651;79;22275;-58
2021/09/14 06:55:59;;;;;;;14.23;8.58;;;;;;;20.99;100.00;99481.23;1780449;78;21959;-58
2021/09/14 06:58:28;;;;;;;13.50;7.90;;;;;;;21.10;100.00;99481.70;1756859;80;20913;-58
2021/09/14 07:00:55;;;;;;;15.13;7.83;;;;;;;21.12;100.00;99481.61;1772885;79;20839;-58
2021/09/14 07:03:21;;;;;;;10.15;7.05;;;;;;;21.16;100.00;99480.38;1786747;79;21000;-58
2021/09/14 07:05:48;;;;;;;11.40;7.62;;;;;;;21.25;100.00;99479.80;1776763;79;21098;-58
2021/09/14 07:08:14;;;;;;;11.57;6.55;;;;;;;21.38;100.00;99484.80;1781857;79;21439;-58
2021/09/14 07:10:41;;;;;;;11.80;7.13;;;;;;;21.55;100.00;99484.75;1761455;79;20823;-60
2021/09/14 07:13:09;;;;;;;8.25;6.58;;;;;;;21.57;100.00;99490.69;1785137;79;20866;-59
2021/09/14 07:15:37;;;;;;;9.98;6.62;;;;;;;21.75;100.00;99493.33;1776051;79;20945;-58
2021/09/14 07:18:03;;;;;;;6.47;5.20;;;;;;;21.98;100.00;99491.13;1780323;79;21057;-60
2021/09/14 07:20:31;;;;;;;9.00;5.67;;;;;;;22.08;100.00;99491.30;1780620;79;20890;-59
2021/09/14 07:22:58;;;;;;;8.70;5.00;;;;;;;21.84;94.40;99496.82;1779426;79;26317;-60
2021/09/14 07:25:26;;;;;;;7.67;4.35;;;;;;;21.66;96.03;99502.95;1793902;79;20981;-60
2021/09/14 07:27:53;;;;;;;11.95;6.10;;;;;;;21.15;96.34;99501.98;1789899;79;20857;-59
2021/09/14 07:30:20;;;;;;;10.23;6.30;;;;;;;21.55;97.98;99494.30;1797467;79;21004;-59
2021/09/14 07:32:51;;;;;;;11.55;6.35;;;;;;;21.74;93.64;99496.63;1791816;79;20944;-59
2021/09/14 07:35:15;;;;;;;7.20;6.08;;;;;;;21.54;94.53;99495.45;1790864;79;21001;-59
2021/09/14 07:37:42;;;;;;;14.55;8.70;;;;;;;21.92;95.16;99494.59;1793282;79;21395;-59
2021/09/14 07:40:12;;;;;;;14.73;9.75;;;;;;;22.09;95.82;99501.88;1797975;79;20952;-59
2021/09/14 07:42:40;;;;;;;13.43;6.50;;;;;;;22.23;95.61;99501.66;1786976;79;20894;-59
2021/09/14 07:45:08;;;;;;;15.13;6.27;;;;;;;22.25;91.02;99498.83;1788085;78;20926;-59
2021/09/14 07:47:35;;;;;;;7.30;5.17;;;;;;;22.18;91.84;99495.80;1784269;79;21198;-59
2021/09/14 07:50:01;;;;;;;10.10;5.85;;;;;;;22.36;89.49;99500.59;1789784;79;21325;-59
2021/09/14 07:52:28;;;;;;;14.20;6.08;;;;;;;22.56;88.26;99504.45;1778884;79;20911;-59
2021/09/14 07:54:55;;;;;;;15.80;6.17;;;;;;;22.77;86.02;99503.06;1772278;79;21127;-59
2021/09/14 07:57:22;;;;;;;14.25;7.22;;;;;;;22.85;85.06;99505.48;1782842;79;20882;-60
2021/09/14 07:59:48;;;;;;;11.35;6.25;;;;;;;22.76;83.30;99502.02;1780242;79;20953;-59
2021/09/14 08:02:16;;;;;;;;;;;;;;;22.94;82.63;99502.67;1781648;79;20954;-60
2021/09/14 08:04:43;;;;;;;10.43;4.83;;;;;;;23.23;81.37;99501.17;1775745;79;20139;-60
2021/09/14 08:07:10;;;;;;;8.73;4.80;;;;;;;23.24;79.64;99506.07;1780810;79;21131;-60
2021/09/14 08:09:37;;;;;;;7.78;4.75;;;;;;;23.15;78.50;99495.23;1772040;81;20866;-59
2021/09/14 08:12:04;;;;;;;7.67;4.97;;;;;;;22.69;80.95;99499.84;1775003;79;20942;-59
2021/09/14 08:14:31;;;;;;;13.70;5.30;;;;;;;22.33;84.17;99505.94;1781260;79;21365;-59
2021/09/14 08:16:57;;;;;;;7.20;4.90;;;;;;;22.41;86.44;99499.02;1779370;79;20906;-59
2021/09/14 08:19:24;;;;;;;5.75;4.28;;;;;;;22.93;80.21;99503.78;1780797;79;21135;-59
2021/09/14 08:21:51;;;;;;;7.83;4.17;;;;;;;22.51;79.32;99493.71;1776543;79;21349;-58
2021/09/14 08:24:19;;;;;;;23.18;4.62;;;;;;;22.58;79.57;99502.18;1776039;79;20997;-59
2021/09/14 08:26:47;;;;;;;7.90;4.22;;;;;;;22.53;79.54;99508.42;1771869;80;20970;-60
2021/09/14 08:29:14;;;;;;;8.70;4.75;;;;;;;22.16;81.05;99505.47;1776798;79;20890;-59
2021/09/14 08:31:41;;;;;;;26.37;5.03;;;;;;;22.08;80.09;99503.59;1780988;79;21083;-59
2021/09/14 08:34:09;;;;;;;11.18;4.72;;;;;;;22.10;80.64;99498.03;1779025;79;21012;-59
2021/09/14 08:36:36;;;;;;;6.80;4.15;;;;;;;22.72;78.66;99498.37;1777661;79;20984;-61
2021/09/14 08:39:04;;;;;;;6.30;3.42;;;;;;;22.69;73.12;99506.69;1775155;79;20989;-60
2021/09/14 08:41:30;;;;;;;8.13;4.00;;;;;;;22.51;73.17;99502.48;1783406;79;20858;-60
2021/09/14 08:43:58;;;;;;;4.33;3.55;;;;;;;22.32;74.95;99501.05;1772077;79;21135;-59
2021/09/14 08:46:25;;;;;;;;;;;;;;;21.77;76.63;99497.33;1742953;80;20894;-60
2021/09/14 08:48:51;;;;;;;7.10;3.75;;;;;;;22.05;77.47;99499.59;1741271;81;20152;-59
2021/09/14 08:51:19;;;;;;;13.08;3.75;;;;;;;22.20;76.87;99488.09;1746061;81;20903;-60
2021/09/14 08:53:46;;;;;;;6.03;3.85;;;;;;;22.40;75.30;99496.06;1757686;81;21058;-60
2021/09/14 08:56:13;;;;;;;9.20;4.30;;;;;;;22.66;72.28;99498.59;1744154;81;21142;-59
2021/09/14 08:58:40;;;;;;;6.92;3.47;;;;;;;22.56;71.09;99496.81;1757876;81;21072;-60
2021/09/14 09:01:13;;;;;;;9.15;4.45;;;;;;;22.32;75.58;99496.12;1709155;83;21470;-59
2021/09/14 09:03:41;;;;;;;10.28;4.33;;;;;;;22.74;71.88;99493.38;1712639;83;20942;-58
2021/09/14 09:06:12;;;;;;;11.83;5.33;;;;;;;22.35;72.55;99494.11;1753734;79;20976;-59
2021/09/14 09:08:38;;;;;;;8.85;3.95;;;;;;;22.56;71.76;99498.97;1755706;81;21413;-60
2021/09/14 09:11:08;;;;;;;5.80;3.37;;;;;;;22.80;69.40;99496.11;1753149;81;21307;-59
2021/09/14 09:13:45;;;;;;;6.28;3.60;;;;;;;23.01;66.87;99499.64;1754088;81;20868;-59
2021/09/14 09:16:25;;;;;;;7.53;3.30;;;;;;;23.20;67.26;99500.48;1749562;81;20957;-59
2021/09/14 09:19:00;;;;;;;6.22;3.25;;;;;;;23.26;65.56;99505.96;1746853;81;21041;-60
2021/09/14 09:21:33;;;;;;;7.20;3.67;;;;;;;22.87;67.82;99493.06;1756880;81;21713;-59
2021/09/14 09:24:03;;;;;;;;;;;;;;;23.43;63.60;99495.38;1756382;80;20984;-59
2021/09/14 09:26:33;;;;;;;7.00;2.87;;;;;;;23.54;63.16;99502.02;1740330;81;20087;-58
2021/09/14 09:29:04;;;;;;;9.05;3.58;;;;;;;22.78;63.89;99495.07;1744567;81;20937;-59
2021/09/14 09:31:31;;;;;;;6.95;3.22;;;;;;;22.74;65.54;99496.11;1753788;81;20919;-59
2021/09/14 09:34:07;;;;;;;5.55;3.30;;;;;;;23.03;65.99;99491.89;1747818;80;21135;-60
2021/09/14 09:36:37;;;;;;;5.53;3.50;;;;;;;23.32;63.54;99495.58;1762670;79;21003;-59
2021/09/14 09:39:06;;;;;;;8.28;3.70;;;;;;;23.30;63.55;99487.72;1755230;81;21027;-59
2021/09/14 09:41:34;;;;;;;9.65;3.15;;;;;;;22.99;65.01;99489.59;1756750;80;20874;-57
2021/09/14 09:44:13;;;;;;;4.90;2.90;;;;;;;23.29;60.19;99481.20;1750300;80;20875;-58
2021/09/14 09:46:37;;;;;;;7.07;3.10;;;;;;;23.50;61.58;99494.23;1739161;80;20933;-58
2021/09/14 09:49:10;;;;;;;7.58;3.98;;;;;;;23.22;60.76;99495.45;1766893;80;21521;-58
2021/09/14 09:51:38;;;;;;;7.10;3.87;;;;;;;23.32;60.88;99485.45;1766687;81;20902;-58
2021/09/14 09:54:04;;;;;;;4.60;3.17;;;;;;;23.77;59.25;99492.56;1765871;81;21022;-58
2021/09/14 09:56:33;;;;;;;5.85;3.02;;;;;;;23.37;62.22;99491.82;1751976;81;20927;-59
2021/09/14 09:59:03;;;;;;;6.50;3.33;;;;;;;23.25;62.22;99498.08;1766106;81;21908;-58
2021/09/14 10:01:32;;;;;;;4.50;3.17;;;;;;;23.26;61.55;99494.21;1759053;81;20930;-58
2021/09/14 10:04:13;;;;;;;9.90;3.80;;;;;;;23.15;61.90;99492.49;1758959;81;20915;-58
2021/09/14 10:06:46;;;;;;;6.30;3.70;;;;;;;23.00;64.06;99497.23;1764752;81;20890;-58
2021/09/14 10:09:13;;;;;;;6.65;3.62;;;;;;;23.61;62.71;99498.69;1760966;81;20941;-59
2021/09/14 10:11:40;;;;;;;7.45;3.58;;;;;;;23.66;60.47;99502.56;1763441;81;21131;-59
2021/09/14 10:14:14;;;;;;;6.55;3.87;;;;;;;22.92;64.22;99500.83;1754405;81;20925;-58
2021/09/14 10:16:49;;;;;;;9.15;4.40;;;;;;;22.60;65.60;99501.28;1761661;81;20942;-58
2021/09/14 10:19:30;;;;;;;8.48;5.15;;;;;;;22.36;66.61;99496.48;1743315;81;20957;-58
2021/09/14 10:22:07;;;;;;;6.12;4.03;;;;;;;22.74;66.92;99496.11;1762954;81;21030;-59
2021/09/14 10:24:35;;;;;;;7.42;3.25;;;;;;;23.40;58.44;99501.54;1759740;81;21235;-58
2021/09/14 10:27:10;;;;;;;4.58;3.22;;;;;;;23.91;58.15;99502.58;1739988;81;20962;-58
2021/09/14 10:29:40;;;;;;;5.08;2.77;;;;;;;24.10;57.59;99504.16;1765175;80;21189;-59
2021/09/14 10:32:12;;;;;;;10.43;3.60;;;;;;;23.84;55.54;99494.16;1736401;81;20950;-59
2021/09/14 10:34:44;;;;;;;3.50;2.70;;;;;;;23.84;54.30;99514.14;1764651;81;20930;-58
2021/09/14 10:37:12;;;;;;;5.58;3.27;;;;;;;23.15;55.99;99514.40;1769738;81;21363;-59
2021/09/14 10:39:41;;;;;;;7.78;5.05;;;;;;;22.65;60.01;99511.22;1762042;81;20917;-58
2021/09/14 10:42:20;;;;;;;9.08;5.30;;;;;;;22.19;63.15;99504.79;1768316;81;20913;-58
2021/09/14 10:44:50;;;;;;;5.95;3.80;;;;;;;21.92;64.63;99508.25;1756535;81;20960;-59
2021/09/14 10:47:20;;;;;;;6.42;4.87;;;;;;;21.59;65.54;99508.13;1775504;80;21018;-58
2021/09/14 10:50:00;;;;;;;4.95;4.30;;;;;;;21.48;65.87;99493.22;1771390;80;21879;-58
2021/09/14 10:52:41;;;;;;;10.20;4.83;;;;;;;21.19;66.68;99498.28;1767942;80;21419;-58
2021/09/14 10:55:13;;;;;;;9.70;4.65;;;;;;;21.00;67.84;99503.88;1753861;80;20982;-59
2021/09/14 10:57:50;;;;;;;7.20;3.92;;;;;;;21.04;67.89;99495.27;1758553;79;20985;-58
2021/09/14 11:00:28;;;;;;;10.18;3.90;;;;;;;21.08;69.63;99493.49;1776848;80;20907;-58
2021/09/14 11:02:59;;;;;;;11.48;4.70;;;;;;;21.05;68.93;99495.52;1777074;80;21447;-58
2021/09/14 11:05:31;;;;;;;5.40;3.70;;;;;;;21.01;69.85;99502.17;1777557;80;20993;-58
2021/09/14 11:08:00;;;;;;;9.40;6.28;;;;;;;20.92;69.54;99497.29;1750723;80;20925;-59
2021/09/14 11:10:35;;;;;;;7.55;4.62;;;;;;;20.91;69.62;99499.79;1770834;80;20918;-58
2021/09/14 11:13:03;;;;;;;10.18;6.10;;;;;;;20.85;69.23;99499.70;1773409;80;20882;-59
2021/09/14 11:15:32;;;;;;;11.25;8.13;;;;;;;20.91;71.72;99502.52;1772622;80;21516;-58
2021/09/14 11:17:59;;;;;;;6.37;4.33;;;;;;;20.92;71.06;99498.65;1757677;80;20994;-58
2021/09/14 11:20:26;;;;;;;6.72;3.20;;;;;;;21.01;70.72;99496.71;1774384;80;21483;-58
2021/09/14 11:22:54;;;;;;;13.58;4.72;;;;;;;21.83;68.78;99499.33;1773866;80;20934;-58
2021/09/14 11:25:28;;;;;;;4.12;3.40;;;;;;;22.41;66.00;99497.66;1778417;80;21041;-59
2021/09/14 11:28:09;;;;;;;6.58;3.95;;;;;;;23.29;61.51;99501.73;1755911;80;23370;-59
2021/09/14 11:30:35;;;;;;;8.20;4.08;;;;;;;23.60;59.78;99499.05;1764057;80;20883;-59
2021/09/14 11:33:03;;;;;;;6.57;3.00;;;;;;;23.73;54.85;99505.56;1755237;80;20871;-58
2021/09/14 11:35:33;;;;;;;;;;;;;;;23.63;55.32;99508.73;1778080;80;20957;-59
2021/09/14 11:38:03;;;;;;;5.65;4.08;;;;;;;24.16;55.69;99501.99;1766292;80;20187;-59
2021/09/14 11:40:33;;;;;;;3.12;2.47;;;;;;;24.33;56.65;99501.72;1775495;80;20946;-59
2021/09/14 11:43:04;;;;;;;6.03;2.58;;;;;;;24.13;58.77;99501.29;1772036;80;20855;-59
2021/09/14 11:45:32;;;;;;;5.55;2.40;;;;;;;24.45;57.49;99501.44;1775552;80;20951;-58
2021/09/14 11:48:00;;;;;;;5.55;2.80;;;;;;;24.51;58.61;99495.40;1776365;79;20978;-58
2021/09/14 11:50:33;;;;;;;6.78;2.55;;;;;;;24.57;58.16;99502.25;1764224;79;20893;-59
2021/09/14 11:53:07;;;;;;;4.33;2.55;;;;;;;24.93;55.74;99497.72;1782125;80;20910;-58
2021/09/14 11:55:36;;;;;;;7.37;2.60;;;;;;;24.25;55.73;99498.52;1781858;79;20906;-58
2021/09/14 11:58:03;;;;;;;5.35;2.08;;;;;;;23.96;56.24;99490.83;1787492;79;21318;-59
2021/09/14 12:00:44;;;;;;;6.23;3.13;;;;;;;23.23;58.08;99482.58;1794271;79;21439;-58
2021/09/14 12:03:10;;;;;;;3.42;2.52;;;;;;;22.69;59.14;99473.86;1785418;79;20940;-59
2021/09/14 12:05:37;;;;;;;3.20;2.53;;;;;;;22.02;62.00;99477.01;1782800;80;20984;-59
2021/09/14 12:08:09;;;;;;;4.83;3.10;;;;;;;21.67;65.33;99484.05;1789202;79;21458;-59
2021/09/14 12:10:48;;;;;;;7.62;3.02;;;;;;;21.58;66.67;99488.75;1788744;79;20910;-59
2021/09/14 12:13:16;;;;;;;16.52;4.00;;;;;;;21.42;68.04;99483.05;1775382;79;20951;-59
2021/09/14 12:15:44;;;;;;;6.03;3.30;;;;;;;21.46;68.98;99484.01;1780843;79;20962;-59
2021/09/14 12:18:14;;;;;;;6.97;2.83;;;;;;;21.44;69.43;99484.89;1774936;79;21187;-59
2021/09/14 12:20:41;;;;;;;5.67;2.85;;;;;;;21.26;69.98;99480.02;1766322;79;20984;-60